CheckWX is a tool to help pilots better visualize weather data.  It is not intended as a substitute for an official pre-flight weather briefing.

23:24:41 UTC

FKYS TAF
Yaoundé Nsimalen International Airport
Yaoundé, Cameroon
TAF FKYS 012300Z 0200/0224 26006KT 9999 BKN006 PROB30 0202/0206 4000 RADZ

Jul-2@
00:00 UTC

Jul-2 @ 00:00 UTC

Jul-3@
00:00 UTC

Jul-3 @ 00:00 UTC

TAF FKYS 012300Z 0200/0224 26006KT 9999 BKN006
Wind
  • 260° at 6 KTS
Cloud Levels
  • Broken at 600' AGL

Jul-2@
02:00 UTC

Jul-2 @ 02:00 UTC

Jul-2@
06:00 UTC

Jul-2 @ 06:00 UTC

PROB30 0202/0206 4000 RADZ

Expired

Conditions
Rain, Drizzle
Cloud Levels